Lukachukai, Arizona
Current Conditions -  °F | °C
As of 3:53 AM on Tuesday 21 Oct 2014 (Local Time) from KFMN Reporting Station
Overcast Overcast  
Wind Chill: 55°   Ceiling: 8500
Heat Index: 55°   Visibility: 10mi
Dew Point: 43°   Wind: 8mph
Humidity: 64%   Direction: 110°ESE
Pressure: 30.14"   Gusts: NA
Location:  36.42°N, 109.23°W
Report Text: KFMN 210953Z AUTO 11007KT 10SM BKN085 OVC110 13/06 A3014 RMK AO2 SLP162 T01280061
Loading
Personal Weather Stations






























Interactive Weather Map
Tropical Storm Tracking
New forecast layout! Learn more

10-Day Weather Forecast

Advertisements
Track Severe Weather on mobile